createdAt,value
2018-06-10T00:00:58.586Z,11.20
2018-06-10T00:01:58.580Z,11.40
2018-06-10T00:02:58.591Z,11.70
2018-06-10T00:03:58.581Z,11.40
2018-06-10T00:04:58.579Z,12.10
2018-06-10T00:05:58.580Z,11.20
2018-06-10T00:06:58.613Z,11.00
2018-06-10T00:07:58.570Z,11.50
2018-06-10T00:08:58.574Z,10.80
2018-06-10T00:09:58.577Z,11.00
2018-06-10T00:10:58.572Z,12.20
2018-06-10T00:11:58.566Z,11.60
2018-06-10T00:12:58.571Z,12.00
2018-06-10T00:13:58.571Z,11.60
2018-06-10T00:14:58.565Z,12.50
2018-06-10T00:15:58.566Z,12.10
2018-06-10T00:16:58.560Z,12.40
2018-06-10T00:17:58.562Z,10.90
2018-06-10T00:18:58.559Z,11.30
2018-06-10T00:19:58.557Z,11.40
2018-06-10T00:20:58.560Z,11.30
2018-06-10T00:21:58.558Z,12.50
2018-06-10T00:22:58.579Z,12.10
2018-06-10T00:23:58.562Z,11.30
2018-06-10T00:24:58.555Z,11.30
2018-06-10T00:25:58.547Z,10.90
2018-06-10T00:26:58.550Z,11.70
2018-06-10T00:27:58.546Z,11.60
2018-06-10T00:28:58.542Z,11.30
2018-06-10T00:29:58.548Z,11.70
2018-06-10T00:30:58.534Z,12.30
2018-06-10T00:31:58.534Z,11.80
2018-06-10T00:32:58.533Z,11.60
2018-06-10T00:33:58.532Z,11.70
2018-06-10T00:34:58.531Z,12.10
2018-06-10T00:35:58.532Z,12.10
2018-06-10T00:36:58.533Z,12.00
2018-06-10T00:37:58.529Z,12.30
2018-06-10T00:38:58.524Z,12.00
2018-06-10T00:39:58.527Z,11.90
2018-06-10T00:40:58.527Z,11.80
2018-06-10T00:41:58.523Z,12.60
2018-06-10T00:42:58.533Z,11.70
2018-06-10T00:43:58.517Z,11.70
2018-06-10T00:44:58.525Z,12.10
2018-06-10T00:45:58.527Z,11.70
2018-06-10T00:46:58.522Z,10.90
2018-06-10T00:47:58.523Z,10.90
2018-06-10T00:48:58.510Z,11.00
2018-06-10T00:49:58.510Z,12.10
2018-06-10T00:50:58.515Z,12.10
2018-06-10T00:51:58.507Z,11.60
2018-06-10T00:52:58.501Z,11.70
2018-06-10T00:53:58.507Z,12.30
2018-06-10T00:54:58.505Z,13.10
2018-06-10T00:55:58.501Z,12.60
2018-06-10T00:56:58.501Z,12.30
2018-06-10T00:57:58.499Z,12.50
2018-06-10T00:58:58.502Z,12.40
2018-06-10T00:59:58.496Z,11.60
2018-06-10T01:00:58.498Z,12.00
2018-06-10T01:01:58.488Z,12.80
2018-06-10T01:02:58.487Z,11.40
2018-06-10T01:03:58.488Z,12.70
2018-06-10T01:04:58.482Z,12.50
2018-06-10T01:05:58.485Z,12.70
2018-06-10T01:06:58.479Z,13.50
2018-06-10T01:07:58.506Z,14.30
2018-06-10T01:08:58.545Z,14.10
2018-06-10T01:09:58.497Z,15.10
2018-06-10T01:10:58.472Z,16.40
2018-06-10T01:11:58.471Z,15.70
2018-06-10T01:12:58.482Z,16.30
2018-06-10T01:13:58.483Z,15.00
2018-06-10T01:14:58.471Z,15.20
2018-06-10T01:15:58.465Z,14.20
2018-06-10T01:16:58.463Z,15.30
2018-06-10T01:17:58.472Z,14.70
2018-06-10T01:18:58.464Z,14.20
2018-06-10T01:19:58.478Z,14.30
2018-06-10T01:20:58.456Z,13.80
2018-06-10T01:21:58.455Z,13.70
2018-06-10T01:22:58.451Z,13.10
2018-06-10T01:23:58.449Z,13.30
2018-06-10T01:24:58.450Z,13.20
2018-06-10T01:25:58.447Z,12.50
2018-06-10T01:26:58.444Z,13.50
2018-06-10T01:27:58.453Z,13.70
2018-06-10T01:28:58.449Z,13.20
2018-06-10T01:29:58.448Z,12.80
2018-06-10T01:30:58.437Z,13.60
2018-06-10T01:31:58.437Z,13.00
2018-06-10T01:32:58.434Z,11.90
2018-06-10T01:33:58.445Z,12.80
2018-06-10T01:34:58.429Z,12.20
2018-06-10T01:35:58.428Z,13.30
2018-06-10T01:36:58.433Z,12.60
2018-06-10T01:37:58.425Z,12.50
2018-06-10T01:38:58.422Z,13.10
2018-06-10T01:39:58.426Z,12.70
2018-06-10T01:40:58.421Z,12.40
2018-06-10T01:41:58.416Z,12.60
2018-06-10T01:42:58.413Z,13.10
2018-06-10T01:43:58.411Z,12.80
2018-06-10T01:44:58.416Z,13.20
2018-06-10T01:45:58.412Z,12.80
2018-06-10T01:46:58.409Z,12.70
2018-06-10T01:47:58.405Z,13.90
2018-06-10T01:48:58.470Z,14.00
2018-06-10T01:49:58.402Z,13.70
2018-06-10T01:50:58.416Z,12.80
2018-06-10T01:51:58.403Z,12.20
2018-06-10T01:52:58.409Z,13.10
2018-06-10T01:53:58.395Z,13.40
2018-06-10T01:54:58.482Z,12.10
2018-06-10T01:55:58.398Z,12.10
2018-06-10T01:56:58.388Z,12.40
2018-06-10T01:57:58.384Z,12.50
2018-06-10T01:58:58.388Z,12.90
2018-06-10T01:59:58.384Z,12.70
2018-06-10T02:00:58.378Z,12.80
2018-06-10T02:01:58.384Z,12.20
2018-06-10T02:02:58.380Z,12.70
2018-06-10T02:03:58.377Z,11.50
2018-06-10T02:04:58.450Z,12.00
2018-06-10T02:05:58.374Z,11.00
2018-06-10T02:06:58.368Z,11.10
2018-06-10T02:07:58.366Z,11.20
2018-06-10T02:08:58.365Z,11.10
2018-06-10T02:09:58.381Z,11.10
2018-06-10T02:10:58.361Z,10.80
2018-06-10T02:11:58.362Z,10.70
2018-06-10T02:12:58.369Z,11.10
2018-06-10T02:13:58.360Z,11.60
2018-06-10T02:14:58.353Z,11.40
2018-06-10T02:15:58.351Z,11.50
2018-06-10T02:16:58.361Z,11.40
2018-06-10T02:17:58.434Z,11.00
2018-06-10T02:18:58.351Z,11.70
2018-06-10T02:19:58.351Z,11.20
2018-06-10T02:20:58.339Z,10.90
2018-06-10T02:21:58.391Z,11.40
2018-06-10T02:22:58.350Z,11.00
2018-06-10T02:23:58.339Z,10.90
2018-06-10T02:24:58.332Z,11.80
2018-06-10T02:25:58.334Z,11.10
2018-06-10T02:26:58.330Z,10.90
2018-06-10T02:27:58.409Z,10.80
2018-06-10T02:28:58.326Z,10.40
2018-06-10T02:29:58.321Z,10.80
2018-06-10T02:30:58.327Z,10.10
2018-06-10T02:31:58.322Z,10.90
2018-06-10T02:32:58.316Z,10.60
2018-06-10T02:33:58.317Z,10.80
2018-06-10T02:34:58.314Z,10.50
2018-06-10T02:35:58.309Z,11.00
2018-06-10T02:36:58.312Z,11.30
2018-06-10T02:37:58.313Z,11.90
2018-06-10T02:38:58.311Z,11.00
2018-06-10T02:39:58.310Z,10.90
2018-06-10T02:40:58.308Z,11.70
2018-06-10T02:41:58.304Z,11.20
2018-06-10T02:42:58.313Z,10.40
2018-06-10T02:43:58.294Z,10.90
2018-06-10T02:44:58.290Z,11.30
2018-06-10T02:45:58.296Z,10.90
2018-06-10T02:46:58.287Z,10.30
2018-06-10T02:47:58.284Z,9.90
2018-06-10T02:48:58.292Z,10.90
2018-06-10T02:49:58.292Z,10.60
2018-06-10T02:50:58.295Z,11.30
2018-06-10T02:51:58.299Z,11.00
2018-06-10T02:52:58.307Z,10.50
2018-06-10T02:53:58.274Z,10.40
2018-06-10T02:54:58.272Z,11.10
2018-06-10T02:55:58.268Z,11.10
2018-06-10T02:56:58.267Z,10.90
2018-06-10T02:57:58.265Z,10.40
2018-06-10T02:58:58.263Z,11.20
2018-06-10T02:59:58.273Z,11.60
2018-06-10T03:00:58.328Z,11.20
2018-06-10T03:01:58.260Z,11.40
2018-06-10T03:02:58.255Z,10.80
2018-06-10T03:03:58.257Z,10.90
2018-06-10T03:04:58.256Z,11.50
2018-06-10T03:05:58.262Z,11.60
2018-06-10T03:06:58.247Z,11.50
2018-06-10T03:07:58.326Z,11.90
2018-06-10T03:08:58.242Z,11.20
2018-06-10T03:09:58.248Z,11.60
2018-06-10T03:10:58.238Z,11.60
2018-06-10T03:11:58.244Z,12.30
2018-06-10T03:12:58.231Z,11.40
2018-06-10T03:13:58.230Z,12.80
2018-06-10T03:14:58.234Z,12.80
2018-06-10T03:15:58.231Z,12.90
2018-06-10T03:16:58.225Z,13.30
2018-06-10T03:17:58.226Z,13.50
2018-06-10T03:18:58.223Z,13.20
2018-06-10T03:19:58.215Z,13.90
2018-06-10T03:20:58.213Z,12.50
2018-06-10T03:21:58.223Z,12.90
2018-06-10T03:22:58.212Z,14.10
2018-06-10T03:23:58.284Z,14.10
2018-06-10T03:24:58.215Z,13.10
2018-06-10T03:25:58.205Z,13.50
2018-06-10T03:26:58.200Z,15.30
2018-06-10T03:27:58.232Z,15.90
2018-06-10T03:28:58.197Z,15.00
2018-06-10T03:29:58.204Z,17.00
2018-06-10T03:30:58.209Z,16.20
2018-06-10T03:31:58.195Z,15.90
2018-06-10T03:32:58.210Z,15.70
2018-06-10T03:33:58.255Z,16.20
2018-06-10T03:34:58.184Z,15.50
2018-06-10T03:35:58.189Z,15.60
2018-06-10T03:36:58.179Z,15.60
2018-06-10T03:37:58.182Z,16.30
2018-06-10T03:38:58.188Z,16.70
2018-06-10T03:39:58.170Z,16.10
2018-06-10T03:40:58.170Z,14.50
2018-06-10T03:41:58.166Z,16.20
2018-06-10T03:42:58.170Z,15.90
2018-06-10T03:43:58.225Z,15.30
2018-06-10T03:44:58.159Z,16.40
2018-06-10T03:45:58.156Z,17.70
2018-06-10T03:46:58.239Z,17.00
2018-06-10T03:47:58.152Z,17.10
2018-06-10T03:48:58.149Z,17.90
2018-06-10T03:49:58.146Z,17.30
2018-06-10T03:50:58.152Z,17.20
2018-06-10T03:51:58.145Z,16.90
2018-06-10T03:52:58.139Z,17.80
2018-06-10T03:53:58.137Z,17.50
2018-06-10T03:54:58.139Z,17.70
2018-06-10T03:55:58.139Z,19.50
2018-06-10T03:56:58.132Z,17.80
2018-06-10T03:57:58.126Z,19.80
2018-06-10T03:58:58.125Z,18.70
2018-06-10T03:59:58.124Z,19.70
2018-06-10T04:00:58.127Z,18.60
2018-06-10T04:01:58.118Z,18.60
2018-06-10T04:02:58.126Z,18.50
2018-06-10T04:03:58.123Z,18.40
2018-06-10T04:04:58.126Z,19.50
2018-06-10T04:05:58.109Z,18.80
2018-06-10T04:06:58.173Z,18.70
2018-06-10T04:07:58.109Z,20.50
2018-06-10T04:08:58.116Z,19.90
2018-06-10T04:09:58.106Z,20.70
2018-06-10T04:10:58.103Z,20.20
2018-06-10T04:11:58.092Z,18.30
2018-06-10T04:12:58.093Z,19.50
2018-06-10T04:13:58.089Z,19.50
2018-06-10T04:14:58.085Z,18.20
2018-06-10T04:15:58.098Z,18.10
2018-06-10T04:16:58.141Z,18.10
2018-06-10T04:17:58.090Z,19.20
2018-06-10T04:18:58.079Z,18.00
2018-06-10T04:19:58.074Z,21.90
2018-06-10T04:20:58.078Z,21.80
2018-06-10T04:21:58.077Z,22.10
2018-06-10T04:22:58.078Z,20.80
2018-06-10T04:23:58.067Z,21.10
2018-06-10T04:24:58.072Z,21.50
2018-06-10T04:25:58.069Z,19.80
2018-06-10T04:26:58.110Z,20.10
2018-06-10T04:27:58.070Z,18.20
2018-06-10T04:28:58.058Z,18.30
2018-06-10T04:29:58.052Z,17.30
2018-06-10T04:30:58.052Z,17.80
2018-06-10T04:31:58.054Z,17.40
2018-06-10T04:32:58.046Z,18.30
2018-06-10T04:33:58.044Z,19.00
2018-06-10T04:34:58.061Z,19.30
2018-06-10T04:35:58.060Z,20.70
2018-06-10T04:36:58.044Z,20.50
2018-06-10T04:37:58.040Z,22.50
2018-06-10T04:38:58.033Z,20.70
2018-06-10T04:39:58.031Z,19.70
2018-06-10T04:40:58.044Z,19.20
2018-06-10T04:41:58.030Z,18.90
2018-06-10T04:42:58.028Z,18.70
2018-06-10T04:43:58.027Z,20.20
2018-06-10T04:44:58.034Z,19.40
2018-06-10T04:45:58.027Z,18.50
2018-06-10T04:46:58.035Z,17.90
2018-06-10T04:47:58.029Z,17.40
2018-06-10T04:48:58.030Z,16.50
2018-06-10T04:49:58.064Z,17.90
2018-06-10T04:50:58.026Z,17.80
2018-06-10T04:51:58.023Z,16.80
2018-06-10T04:52:58.088Z,16.10
2018-06-10T04:53:58.024Z,16.00
2018-06-10T04:54:58.031Z,17.20
2018-06-10T04:55:58.023Z,18.40
2018-06-10T04:56:58.028Z,18.60
2018-06-10T04:57:58.027Z,17.00
2018-06-10T04:58:58.035Z,16.70
2018-06-10T04:59:58.038Z,17.60
2018-06-10T05:00:58.029Z,19.30
2018-06-10T05:01:58.025Z,18.40
2018-06-10T05:02:58.034Z,18.20
2018-06-10T05:03:58.027Z,18.00
2018-06-10T05:04:58.026Z,16.80
2018-06-10T05:05:58.074Z,17.20
2018-06-10T05:06:58.026Z,17.30
2018-06-10T05:07:58.025Z,18.50
2018-06-10T05:08:58.033Z,17.30
2018-06-10T05:09:58.023Z,17.20
2018-06-10T05:10:58.038Z,16.90
2018-06-10T05:11:58.030Z,18.50
2018-06-10T05:12:58.023Z,18.70
2018-06-10T05:13:58.033Z,18.60
2018-06-10T05:14:58.029Z,20.60
2018-06-10T05:15:58.023Z,20.10
2018-06-10T05:16:58.025Z,17.00
2018-06-10T05:17:58.034Z,17.20
2018-06-10T05:18:58.065Z,16.50
2018-06-10T05:19:58.062Z,16.30
2018-06-10T05:20:58.022Z,16.80
2018-06-10T05:21:58.065Z,17.90
2018-06-10T05:22:58.022Z,17.70
2018-06-10T05:23:58.019Z,16.60
2018-06-10T05:24:58.028Z,16.70
2018-06-10T05:25:58.015Z,17.40
2018-06-10T05:26:58.079Z,16.90
2018-06-10T05:27:58.013Z,17.60
2018-06-10T05:28:58.015Z,18.30
2018-06-10T05:29:58.021Z,18.40
2018-06-10T05:30:58.013Z,17.30
2018-06-10T05:31:58.015Z,17.30
2018-06-10T05:32:58.011Z,16.50
2018-06-10T05:33:58.011Z,15.30
2018-06-10T05:34:58.016Z,14.30
2018-06-10T05:35:58.009Z,14.40
2018-06-10T05:36:58.012Z,13.60
2018-06-10T05:37:58.008Z,14.80
2018-06-10T05:38:58.010Z,14.50
2018-06-10T05:39:58.015Z,14.40
2018-06-10T05:40:58.009Z,14.30
2018-06-10T05:41:58.013Z,14.20
2018-06-10T05:42:58.009Z,14.90
2018-06-10T05:43:58.006Z,14.30
2018-06-10T05:44:58.040Z,13.90
2018-06-10T05:45:58.017Z,15.00
2018-06-10T05:46:58.009Z,14.70
2018-06-10T05:47:58.005Z,14.50
2018-06-10T05:48:58.009Z,13.80
2018-06-10T05:49:58.006Z,12.70
2018-06-10T05:50:58.008Z,13.70
2018-06-10T05:51:58.007Z,13.70
2018-06-10T05:52:58.011Z,14.20
2018-06-10T05:53:58.009Z,13.30
2018-06-10T05:54:58.016Z,14.40
2018-06-10T05:55:58.014Z,13.60
2018-06-10T05:56:58.034Z,14.50
2018-06-10T05:57:58.022Z,14.00
2018-06-10T05:58:58.015Z,14.00
2018-06-10T05:59:58.012Z,14.50
2018-06-10T06:00:58.016Z,15.60
2018-06-10T06:01:58.021Z,14.00
2018-06-10T06:02:58.019Z,13.80
2018-06-10T06:03:58.020Z,14.30
2018-06-10T06:04:58.012Z,14.00
2018-06-10T06:05:58.012Z,13.60
2018-06-10T06:06:58.016Z,13.40
2018-06-10T06:07:58.031Z,13.90
2018-06-10T06:08:58.015Z,14.80
2018-06-10T06:09:58.015Z,13.60
2018-06-10T06:10:58.015Z,12.40
2018-06-10T06:11:58.017Z,13.30
2018-06-10T06:12:58.021Z,12.90
2018-06-10T06:13:58.017Z,14.30
2018-06-10T06:14:58.017Z,14.90
2018-06-10T06:15:58.016Z,14.70
2018-06-10T06:16:58.015Z,13.70
2018-06-10T06:17:58.023Z,12.30
2018-06-10T06:18:58.037Z,13.00
2018-06-10T06:19:58.026Z,13.00
2018-06-10T06:20:58.027Z,12.90
2018-06-10T06:21:58.028Z,11.80
2018-06-10T06:22:58.018Z,11.60
2018-06-10T06:23:58.022Z,11.80
2018-06-10T06:24:58.019Z,11.70
2018-06-10T06:25:58.022Z,11.70
2018-06-10T06:26:58.030Z,11.80
2018-06-10T06:27:58.026Z,12.40
2018-06-10T06:28:58.024Z,11.20
2018-06-10T06:29:58.030Z,12.70
2018-06-10T06:30:58.024Z,13.10
2018-06-10T06:31:58.033Z,13.00
2018-06-10T06:32:58.026Z,13.00
2018-06-10T06:33:58.026Z,13.00
2018-06-10T06:34:58.029Z,12.60
2018-06-10T06:35:58.037Z,12.30
2018-06-10T06:36:58.041Z,12.50
2018-06-10T06:37:58.371Z,13.00
2018-06-10T06:38:58.065Z,13.00
2018-06-10T06:39:58.031Z,13.60
2018-06-10T06:40:58.046Z,13.50
2018-06-10T06:41:58.191Z,12.80
2018-06-10T06:42:58.038Z,12.70
2018-06-10T06:43:58.034Z,12.80
2018-06-10T06:44:58.047Z,12.80
2018-06-10T06:45:58.037Z,14.00
2018-06-10T06:46:58.035Z,13.70
2018-06-10T06:47:58.037Z,12.70
2018-06-10T06:48:58.046Z,13.10
2018-06-10T06:49:58.040Z,12.10
2018-06-10T06:50:58.046Z,13.50
2018-06-10T06:51:58.044Z,13.30
2018-06-10T06:52:58.047Z,12.80
2018-06-10T06:53:58.043Z,13.20
2018-06-10T06:54:58.051Z,12.90
2018-06-10T06:55:58.049Z,12.40
2018-06-10T06:56:58.050Z,12.90
2018-06-10T06:57:58.095Z,12.90
2018-06-10T06:58:58.058Z,12.20
2018-06-10T06:59:58.070Z,12.20
2018-06-10T07:00:58.066Z,11.70
2018-06-10T07:01:58.068Z,11.80
2018-06-10T07:02:58.059Z,12.00
2018-06-10T07:03:58.066Z,11.80
2018-06-10T07:04:58.069Z,11.80
2018-06-10T07:05:58.062Z,11.60
2018-06-10T07:06:58.074Z,11.20
2018-06-10T07:07:58.075Z,11.90
2018-06-10T07:08:58.069Z,12.30
2018-06-10T07:09:58.069Z,12.10
2018-06-10T07:10:58.076Z,10.60
2018-06-10T07:11:58.108Z,9.30
2018-06-10T07:12:58.082Z,9.90
2018-06-10T07:13:58.076Z,9.90
2018-06-10T07:14:58.079Z,9.80
2018-06-10T07:15:58.089Z,9.50
2018-06-10T07:16:58.085Z,9.70
2018-06-10T07:17:58.089Z,10.20
2018-06-10T07:18:58.088Z,10.30
2018-06-10T07:19:58.116Z,9.30
2018-06-10T07:20:58.094Z,9.30
2018-06-10T07:21:58.093Z,9.30
2018-06-10T07:22:58.116Z,8.50
2018-06-10T07:23:58.095Z,8.00
2018-06-10T07:24:58.100Z,7.10
2018-06-10T07:25:58.110Z,7.20
2018-06-10T07:26:58.101Z,7.40
2018-06-10T07:27:58.103Z,6.80
2018-06-10T07:28:58.106Z,7.30
2018-06-10T07:29:58.108Z,7.30
2018-06-10T07:30:58.109Z,7.20
2018-06-10T07:31:58.114Z,6.80
2018-06-10T07:32:58.124Z,6.70
2018-06-10T07:33:58.117Z,7.10
2018-06-10T07:34:58.119Z,6.90
2018-06-10T07:35:58.126Z,6.50
2018-06-10T07:36:58.133Z,6.50
2018-06-10T07:37:58.134Z,6.80
2018-06-10T07:38:58.128Z,6.50
2018-06-10T07:39:58.131Z,6.70
2018-06-10T07:40:58.139Z,6.30
2018-06-10T07:41:58.142Z,6.50
2018-06-10T07:42:58.152Z,6.80
2018-06-10T07:43:58.140Z,5.60
2018-06-10T07:44:58.145Z,6.20
2018-06-10T07:45:58.151Z,5.90
2018-06-10T07:46:58.152Z,6.30
2018-06-10T07:47:58.154Z,5.60
2018-06-10T07:48:58.157Z,5.70
2018-06-10T07:49:58.164Z,6.10
2018-06-10T07:50:58.159Z,5.90
2018-06-10T07:51:58.171Z,5.70
2018-06-10T07:52:58.164Z,6.10
2018-06-10T07:53:58.170Z,5.60
2018-06-10T07:54:58.175Z,6.20
2018-06-10T07:55:58.171Z,6.20
2018-06-10T07:56:58.175Z,6.10
2018-06-10T07:57:58.179Z,6.60
2018-06-10T07:58:58.181Z,5.70
2018-06-10T07:59:58.183Z,6.40
2018-06-10T08:00:58.190Z,6.70
2018-06-10T08:01:58.189Z,6.60
2018-06-10T08:02:58.197Z,6.10
2018-06-10T08:03:58.202Z,6.70
2018-06-10T08:04:58.209Z,6.50
2018-06-10T08:05:58.209Z,6.40
2018-06-10T08:06:58.220Z,5.80
2018-06-10T08:07:58.215Z,6.40
2018-06-10T08:08:58.215Z,6.10
2018-06-10T08:09:58.225Z,6.40
2018-06-10T08:10:58.222Z,6.00
2018-06-10T08:11:58.225Z,6.30
2018-06-10T08:12:58.229Z,5.90
2018-06-10T08:13:58.230Z,6.60
2018-06-10T08:14:58.231Z,6.90
2018-06-10T08:15:58.232Z,6.70
2018-06-10T08:16:58.236Z,6.50
2018-06-10T08:17:58.244Z,6.30
2018-06-10T08:18:58.242Z,5.50
2018-06-10T08:19:58.249Z,5.80
2018-06-10T08:20:58.250Z,6.20
2018-06-10T08:21:58.252Z,5.80
2018-06-10T08:22:58.265Z,6.30
2018-06-10T08:23:58.267Z,5.90
2018-06-10T08:24:58.272Z,5.80
2018-06-10T08:25:58.273Z,6.20
2018-06-10T08:26:58.281Z,5.80
2018-06-10T08:27:58.285Z,5.90
2018-06-10T08:28:58.275Z,5.50
2018-06-10T08:29:58.281Z,5.60
2018-06-10T08:30:58.293Z,6.10
2018-06-10T08:31:58.328Z,6.00
2018-06-10T08:32:58.292Z,6.60
2018-06-10T08:33:58.296Z,6.30
2018-06-10T08:34:58.296Z,6.20
2018-06-10T08:35:58.302Z,5.90
2018-06-10T08:36:58.310Z,5.80
2018-06-10T08:37:58.308Z,5.90
2018-06-10T08:38:58.312Z,5.50
2018-06-10T08:39:58.314Z,5.60
2018-06-10T08:40:58.326Z,5.90
2018-06-10T08:41:58.323Z,6.30
2018-06-10T08:42:58.334Z,5.70
2018-06-10T08:43:58.409Z,5.40
2018-06-10T08:44:58.337Z,5.40
2018-06-10T08:45:58.341Z,5.30
2018-06-10T08:46:58.344Z,5.70
2018-06-10T08:47:58.344Z,5.40
2018-06-10T08:48:58.347Z,5.70
2018-06-10T08:49:58.357Z,6.70
2018-06-10T08:50:58.356Z,6.50
2018-06-10T08:51:58.367Z,6.00
2018-06-10T08:52:58.370Z,5.40
2018-06-10T08:53:58.367Z,5.80
2018-06-10T08:54:58.373Z,5.10
2018-06-10T08:55:58.373Z,5.70
2018-06-10T08:56:58.436Z,5.20
2018-06-10T08:57:58.390Z,5.50
2018-06-10T08:58:58.388Z,5.80
2018-06-10T08:59:58.405Z,5.10
2018-06-10T09:00:58.404Z,4.80
2018-06-10T09:01:58.413Z,5.00
2018-06-10T09:02:58.403Z,5.30
2018-06-10T09:03:58.407Z,5.00
2018-06-10T09:04:58.414Z,5.10
2018-06-10T09:05:58.423Z,5.20
2018-06-10T09:06:58.422Z,5.60
2018-06-10T09:07:58.436Z,5.10
2018-06-10T09:08:58.443Z,5.20
2018-06-10T09:09:58.441Z,5.20
2018-06-10T09:10:58.439Z,5.50
2018-06-10T09:11:58.441Z,5.50
2018-06-10T09:12:58.446Z,5.10
2018-06-10T09:13:58.452Z,5.40
2018-06-10T09:14:58.452Z,5.40
2018-06-10T09:15:58.459Z,5.30
2018-06-10T09:16:58.456Z,5.40
2018-06-10T09:17:58.462Z,4.90
2018-06-10T09:18:58.465Z,5.10
2018-06-10T09:19:58.473Z,4.90
2018-06-10T09:20:58.487Z,4.60
2018-06-10T09:21:58.488Z,4.60
2018-06-10T09:22:58.487Z,5.10
2018-06-10T09:23:58.496Z,4.90
2018-06-10T09:24:58.505Z,5.40
2018-06-10T09:25:58.496Z,4.50
2018-06-10T09:26:58.502Z,4.80
2018-06-10T09:27:58.507Z,4.60
2018-06-10T09:28:58.509Z,4.60
2018-06-10T09:29:58.513Z,4.80
2018-06-10T09:30:58.532Z,4.40
2018-06-10T09:31:58.521Z,4.70
2018-06-10T09:32:58.527Z,4.40
2018-06-10T09:33:58.537Z,4.40
2018-06-10T09:34:58.540Z,4.70
2018-06-10T09:35:58.546Z,4.50
2018-06-10T09:36:58.542Z,4.60
2018-06-10T09:37:58.550Z,4.60
2018-06-10T09:38:58.552Z,5.00
2018-06-10T09:39:58.560Z,4.80
2018-06-10T09:40:58.568Z,5.20
2018-06-10T09:41:58.614Z,5.00
2018-06-10T09:42:58.568Z,4.70
2018-06-10T09:43:58.573Z,4.60
2018-06-10T09:44:58.586Z,4.70
2018-06-10T09:45:58.592Z,5.00
2018-06-10T09:46:58.598Z,4.60
2018-06-10T09:47:58.599Z,4.70
2018-06-10T09:48:58.595Z,4.60
2018-06-10T09:49:58.646Z,4.20
2018-06-10T09:50:58.613Z,4.50
2018-06-10T09:51:58.608Z,4.60
2018-06-10T09:52:58.614Z,4.70
2018-06-10T09:53:58.620Z,4.80
2018-06-10T09:54:58.630Z,4.30
2018-06-10T09:55:58.630Z,4.80
2018-06-10T09:56:58.632Z,4.50
2018-06-10T09:57:58.646Z,4.40
2018-06-10T09:58:58.643Z,4.20
2018-06-10T09:59:58.658Z,5.20
2018-06-10T10:00:58.654Z,4.70
2018-06-10T10:01:58.662Z,4.40
2018-06-10T10:02:58.677Z,4.50
2018-06-10T10:03:58.666Z,4.30
2018-06-10T10:04:58.676Z,4.60
2018-06-10T10:05:58.680Z,4.20
2018-06-10T10:06:58.681Z,5.10
2018-06-10T10:07:58.695Z,4.80
2018-06-10T10:08:58.698Z,4.60
2018-06-10T10:09:58.694Z,4.50
2018-06-10T10:10:58.701Z,4.20
2018-06-10T10:11:58.732Z,4.60
2018-06-10T10:12:58.726Z,4.30
2018-06-10T10:13:58.719Z,3.70
2018-06-10T10:14:58.720Z,3.70
2018-06-10T10:15:58.721Z,3.70
2018-06-10T10:16:58.726Z,3.80
2018-06-10T10:17:58.732Z,3.60
2018-06-10T10:18:58.743Z,3.00
2018-06-10T10:19:58.754Z,3.50
2018-06-10T10:20:58.758Z,3.60
2018-06-10T10:21:58.759Z,3.50
2018-06-10T10:22:58.769Z,3.50
2018-06-10T10:23:58.761Z,3.40
2018-06-10T10:24:58.765Z,3.50
2018-06-10T10:25:58.771Z,3.50
2018-06-10T10:26:58.776Z,3.80
2018-06-10T10:27:58.779Z,3.70
2018-06-10T10:28:58.793Z,4.00
2018-06-10T10:29:58.791Z,3.90
2018-06-10T10:30:58.813Z,3.90
2018-06-10T10:31:58.872Z,3.50
2018-06-10T10:32:58.822Z,4.20
2018-06-10T10:33:58.816Z,4.20
2018-06-10T10:34:58.812Z,4.60
2018-06-10T10:35:58.817Z,4.30
2018-06-10T10:36:58.833Z,4.30
2018-06-10T10:37:58.833Z,4.20
2018-06-10T10:38:58.847Z,4.20
2018-06-10T10:39:58.838Z,4.30
2018-06-10T10:40:58.843Z,4.40
2018-06-10T10:41:58.862Z,4.10
2018-06-10T10:42:58.850Z,3.90
2018-06-10T10:43:58.868Z,4.30
2018-06-10T10:44:58.873Z,4.40
2018-06-10T10:45:58.872Z,3.50
2018-06-10T10:46:58.872Z,3.60
2018-06-10T10:47:58.872Z,4.00
2018-06-10T10:48:58.930Z,3.70
2018-06-10T10:49:58.884Z,4.00
2018-06-10T10:50:58.899Z,3.80
2018-06-10T10:51:58.891Z,4.00
2018-06-10T10:52:58.904Z,3.80
2018-06-10T10:53:58.905Z,4.10
2018-06-10T10:54:58.903Z,4.10
2018-06-10T10:55:58.978Z,3.80
2018-06-10T10:56:58.913Z,4.10
2018-06-10T10:57:58.921Z,3.90
2018-06-10T10:58:58.924Z,3.70
2018-06-10T10:59:58.925Z,4.10
2018-06-10T11:00:58.930Z,4.00
2018-06-10T11:01:59.033Z,3.80
2018-06-10T11:02:58.945Z,3.70
2018-06-10T11:03:58.942Z,3.90
2018-06-10T11:04:58.947Z,3.60
2018-06-10T11:05:58.955Z,3.90
2018-06-10T11:06:58.970Z,3.60
2018-06-10T11:07:58.974Z,4.00
2018-06-10T11:08:58.966Z,4.20
2018-06-10T11:09:58.971Z,3.30
2018-06-10T11:10:58.976Z,3.60
2018-06-10T11:11:58.980Z,4.10
2018-06-10T11:12:58.984Z,3.90
2018-06-10T11:13:58.988Z,3.90
2018-06-10T11:14:59.090Z,3.80
2018-06-10T11:15:59.029Z,3.50
2018-06-10T11:16:59.003Z,4.10
2018-06-10T11:17:59.017Z,3.90
2018-06-10T11:18:59.012Z,3.70
2018-06-10T11:19:59.023Z,3.40
2018-06-10T11:20:59.028Z,3.50
2018-06-10T11:21:59.028Z,3.50
2018-06-10T11:22:59.045Z,3.40
2018-06-10T11:23:59.049Z,3.30
2018-06-10T11:24:59.042Z,3.10
2018-06-10T11:25:59.055Z,3.10
2018-06-10T11:26:59.093Z,3.10
2018-06-10T11:27:59.059Z,3.30
2018-06-10T11:28:59.062Z,2.90
2018-06-10T11:29:59.078Z,3.20
2018-06-10T11:30:59.072Z,2.90
2018-06-10T11:31:59.083Z,3.20
2018-06-10T11:32:59.089Z,3.10
2018-06-10T11:33:59.087Z,3.20
2018-06-10T11:34:59.106Z,3.20
2018-06-10T11:35:59.097Z,3.10
2018-06-10T11:36:59.115Z,2.90
2018-06-10T11:37:59.126Z,3.30
2018-06-10T11:38:59.121Z,3.10
2018-06-10T11:39:59.117Z,3.40
2018-06-10T11:40:59.121Z,3.00
2018-06-10T11:41:59.125Z,3.20
2018-06-10T11:42:59.130Z,2.80
2018-06-10T11:43:59.148Z,3.20
2018-06-10T11:44:59.138Z,3.20
2018-06-10T11:45:59.142Z,3.10
2018-06-10T11:46:59.156Z,3.30
2018-06-10T11:47:59.155Z,3.20
2018-06-10T11:48:59.187Z,3.30
2018-06-10T11:49:59.170Z,3.70
2018-06-10T11:50:59.166Z,4.10
2018-06-10T11:51:59.202Z,3.80
2018-06-10T11:52:59.186Z,3.90
2018-06-10T11:53:59.179Z,3.10
2018-06-10T11:54:59.184Z,3.30
2018-06-10T11:55:59.189Z,2.80
2018-06-10T11:56:59.214Z,3.10
2018-06-10T11:57:59.283Z,3.00
2018-06-10T11:58:59.236Z,3.20
2018-06-10T11:59:59.207Z,3.20
2018-06-10T12:00:59.221Z,2.90
2018-06-10T12:01:59.270Z,2.80
2018-06-10T12:02:59.232Z,2.90
2018-06-10T12:03:59.228Z,3.30
2018-06-10T12:04:59.239Z,3.60
2018-06-10T12:05:59.230Z,2.90
2018-06-10T12:06:59.235Z,2.90
2018-06-10T12:07:59.249Z,3.40
2018-06-10T12:08:59.244Z,3.20
2018-06-10T12:09:59.248Z,2.80
2018-06-10T12:10:59.251Z,2.70
2018-06-10T12:11:59.263Z,2.60
2018-06-10T12:12:59.263Z,3.20
2018-06-10T12:13:59.266Z,2.70
2018-06-10T12:14:59.281Z,2.40
2018-06-10T12:15:59.276Z,2.60
2018-06-10T12:16:59.288Z,2.80
2018-06-10T12:17:59.293Z,2.50
2018-06-10T12:18:59.298Z,2.50
2018-06-10T12:19:59.291Z,2.00
2018-06-10T12:20:59.309Z,2.70
2018-06-10T12:21:59.302Z,2.30
2018-06-10T12:22:59.317Z,2.30
2018-06-10T12:23:59.315Z,2.10
2018-06-10T12:24:59.316Z,2.50
2018-06-10T12:25:59.329Z,2.20
2018-06-10T12:26:59.333Z,1.90
2018-06-10T12:27:59.338Z,1.90
2018-06-10T12:28:59.335Z,2.40
2018-06-10T12:29:59.341Z,2.40
2018-06-10T12:30:59.346Z,2.40
2018-06-10T12:31:59.350Z,2.20
2018-06-10T12:32:59.359Z,2.50
2018-06-10T12:33:59.363Z,2.70
2018-06-10T12:34:59.363Z,3.00
2018-06-10T12:35:59.373Z,2.50
2018-06-10T12:36:59.373Z,2.50
2018-06-10T12:37:59.378Z,2.90
2018-06-10T12:38:59.390Z,2.60
2018-06-10T12:39:59.391Z,2.50
2018-06-10T12:40:59.423Z,2.40
2018-06-10T12:41:59.422Z,2.40
2018-06-10T12:42:59.413Z,2.70
2018-06-10T12:43:59.409Z,2.30
2018-06-10T12:44:59.418Z,2.10
2018-06-10T12:45:59.434Z,2.30
2018-06-10T12:46:59.433Z,2.40
2018-06-10T12:47:59.436Z,2.30
2018-06-10T12:48:59.434Z,2.30
2018-06-10T12:49:59.439Z,2.10
2018-06-10T12:50:59.453Z,2.30
2018-06-10T12:51:59.448Z,2.40
2018-06-10T12:52:59.453Z,2.00
2018-06-10T12:53:59.459Z,2.20
2018-06-10T12:54:59.470Z,2.30
2018-06-10T12:55:59.471Z,2.30
2018-06-10T12:56:59.503Z,2.40
2018-06-10T12:57:59.486Z,2.10
2018-06-10T12:58:59.486Z,2.30
2018-06-10T12:59:59.493Z,2.10
2018-06-10T13:00:59.497Z,2.30
2018-06-10T13:01:59.504Z,2.80
2018-06-10T13:02:59.518Z,2.30
2018-06-10T13:03:59.529Z,2.60
2018-06-10T13:04:59.521Z,2.30